sensor_id;sensor_type;location;lat;lon;timestamp;P1;durP1;ratioP1;P2;durP2;ratioP2
75280;SDS011;63874;47.230;39.620;2022-10-31T00:02:24;1.65;;;0.40;;
75280;SDS011;63874;47.230;39.620;2022-10-31T00:04:50;1.95;;;0.30;;
75280;SDS011;63874;47.230;39.620;2022-10-31T00:07:16;1.42;;;0.40;;
75280;SDS011;63874;47.230;39.620;2022-10-31T00:09:42;1.02;;;0.32;;
75280;SDS011;63874;47.230;39.620;2022-10-31T00:12:08;2.08;;;0.73;;
75280;SDS011;63874;47.230;39.620;2022-10-31T00:14:37;1.15;;;0.20;;
75280;SDS011;63874;47.230;39.620;2022-10-31T00:17:03;1.30;;;0.28;;
75280;SDS011;63874;47.230;39.620;2022-10-31T00:19:29;1.73;;;0.57;;
75280;SDS011;63874;47.230;39.620;2022-10-31T00:21:55;1.50;;;0.63;;
75280;SDS011;63874;47.230;39.620;2022-10-31T00:24:21;1.75;;;0.22;;
75280;SDS011;63874;47.230;39.620;2022-10-31T00:26:47;1.55;;;0.63;;
75280;SDS011;63874;47.230;39.620;2022-10-31T00:29:13;1.90;;;0.65;;
75280;SDS011;63874;47.230;39.620;2022-10-31T00:31:39;2.05;;;0.40;;
75280;SDS011;63874;47.230;39.620;2022-10-31T00:34:05;3.67;;;1.70;;
75280;SDS011;63874;47.230;39.620;2022-10-31T00:36:30;2.08;;;0.80;;
75280;SDS011;63874;47.230;39.620;2022-10-31T00:38:57;2.67;;;0.90;;
75280;SDS011;63874;47.230;39.620;2022-10-31T00:41:23;4.18;;;1.00;;
75280;SDS011;63874;47.230;39.620;2022-10-31T00:43:49;3.05;;;1.38;;
75280;SDS011;63874;47.230;39.620;2022-10-31T00:46:16;3.13;;;1.27;;
75280;SDS011;63874;47.230;39.620;2022-10-31T00:48:42;3.65;;;1.40;;
75280;SDS011;63874;47.230;39.620;2022-10-31T00:51:08;3.78;;;1.65;;
75280;SDS011;63874;47.230;39.620;2022-10-31T00:53:34;3.60;;;1.45;;
75280;SDS011;63874;47.230;39.620;2022-10-31T00:56:00;3.90;;;1.33;;
75280;SDS011;63874;47.230;39.620;2022-10-31T00:58:26;3.42;;;1.75;;
75280;SDS011;63874;47.230;39.620;2022-10-31T01:00:52;4.63;;;2.00;;
75280;SDS011;63874;47.230;39.620;2022-10-31T01:03:25;3.45;;;1.50;;
75280;SDS011;63874;47.230;39.620;2022-10-31T01:05:59;3.42;;;1.50;;
75280;SDS011;63874;47.230;39.620;2022-10-31T01:08:26;5.22;;;2.33;;
75280;SDS011;63874;47.230;39.620;2022-10-31T01:10:59;3.38;;;1.50;;
75280;SDS011;63874;47.230;39.620;2022-10-31T01:13:25;4.07;;;1.50;;
75280;SDS011;63874;47.230;39.620;2022-10-31T01:15:55;3.75;;;1.77;;
75280;SDS011;63874;47.230;39.620;2022-10-31T01:18:22;3.65;;;1.83;;
75280;SDS011;63874;47.230;39.620;2022-10-31T01:20:58;4.47;;;2.00;;
75280;SDS011;63874;47.230;39.620;2022-10-31T01:23:26;4.45;;;1.95;;
75280;SDS011;63874;47.230;39.620;2022-10-31T01:26:27;6.55;;;1.58;;
75280;SDS011;63874;47.230;39.620;2022-10-31T01:31:17;3.53;;;1.60;;
75280;SDS011;63874;47.230;39.620;2022-10-31T01:33:44;3.92;;;1.63;;
75280;SDS011;63874;47.230;39.620;2022-10-31T01:36:18;3.75;;;1.73;;
75280;SDS011;63874;47.230;39.620;2022-10-31T01:38:49;4.00;;;1.38;;
75280;SDS011;63874;47.230;39.620;2022-10-31T01:41:20;4.38;;;1.75;;
75280;SDS011;63874;47.230;39.620;2022-10-31T01:43:49;4.30;;;1.40;;
75280;SDS011;63874;47.230;39.620;2022-10-31T01:46:41;4.07;;;1.65;;
75280;SDS011;63874;47.230;39.620;2022-10-31T01:52:01;3.42;;;1.40;;
75280;SDS011;63874;47.230;39.620;2022-10-31T01:54:36;3.42;;;1.90;;
75280;SDS011;63874;47.230;39.620;2022-10-31T01:57:06;2.50;;;1.10;;
75280;SDS011;63874;47.230;39.620;2022-10-31T01:59:35;3.67;;;1.33;;
75280;SDS011;63874;47.230;39.620;2022-10-31T02:02:06;2.53;;;0.98;;
75280;SDS011;63874;47.230;39.620;2022-10-31T02:04:32;2.38;;;0.80;;
75280;SDS011;63874;47.230;39.620;2022-10-31T02:07:07;3.90;;;0.90;;
75280;SDS011;63874;47.230;39.620;2022-10-31T02:09:37;2.92;;;1.27;;
75280;SDS011;63874;47.230;39.620;2022-10-31T02:12:04;2.15;;;0.60;;
75280;SDS011;63874;47.230;39.620;2022-10-31T02:14:31;1.73;;;0.52;;
75280;SDS011;63874;47.230;39.620;2022-10-31T02:16:59;2.38;;;1.15;;
75280;SDS011;63874;47.230;39.620;2022-10-31T02:30:35;2.67;;;1.08;;
75280;SDS011;63874;47.230;39.620;2022-10-31T02:36:16;3.05;;;1.10;;
75280;SDS011;63874;47.230;39.620;2022-10-31T02:47:32;4.63;;;2.70;;
75280;SDS011;63874;47.230;39.620;2022-10-31T02:52:28;4.82;;;2.28;;
75280;SDS011;63874;47.230;39.620;2022-10-31T03:00:30;3.92;;;2.05;;
75280;SDS011;63874;47.230;39.620;2022-10-31T03:06:09;4.75;;;1.90;;
75280;SDS011;63874;47.230;39.620;2022-10-31T03:11:53;4.90;;;2.60;;
75280;SDS011;63874;47.230;39.620;2022-10-31T03:14:42;5.03;;;2.17;;
75280;SDS011;63874;47.230;39.620;2022-10-31T03:17:28;3.85;;;1.67;;
75280;SDS011;63874;47.230;39.620;2022-10-31T03:20:11;3.70;;;1.83;;
75280;SDS011;63874;47.230;39.620;2022-10-31T03:22:37;5.47;;;2.15;;
75280;SDS011;63874;47.230;39.620;2022-10-31T03:25:07;4.35;;;2.42;;
75280;SDS011;63874;47.230;39.620;2022-10-31T03:27:35;4.50;;;1.75;;
75280;SDS011;63874;47.230;39.620;2022-10-31T03:30:04;3.28;;;1.40;;
75280;SDS011;63874;47.230;39.620;2022-10-31T03:32:43;3.65;;;1.83;;
75280;SDS011;63874;47.230;39.620;2022-10-31T03:35:15;3.28;;;1.45;;
75280;SDS011;63874;47.230;39.620;2022-10-31T03:37:44;2.33;;;0.98;;
75280;SDS011;63874;47.230;39.620;2022-10-31T03:40:14;3.72;;;2.17;;
75280;SDS011;63874;47.230;39.620;2022-10-31T03:42:43;2.70;;;1.00;;
75280;SDS011;63874;47.230;39.620;2022-10-31T03:45:17;2.35;;;1.02;;
75280;SDS011;63874;47.230;39.620;2022-10-31T03:47:52;2.13;;;0.70;;
75280;SDS011;63874;47.230;39.620;2022-10-31T03:50:19;4.40;;;1.58;;
75280;SDS011;63874;47.230;39.620;2022-10-31T03:55:20;3.60;;;1.33;;
75280;SDS011;63874;47.230;39.620;2022-10-31T04:00:25;2.50;;;0.85;;
75280;SDS011;63874;47.230;39.620;2022-10-31T04:03:00;1.70;;;0.65;;
75280;SDS011;63874;47.230;39.620;2022-10-31T04:05:53;1.70;;;0.60;;
75280;SDS011;63874;47.230;39.620;2022-10-31T04:08:26;2.50;;;1.25;;
75280;SDS011;63874;47.230;39.620;2022-10-31T04:10:55;1.90;;;0.55;;
75280;SDS011;63874;47.230;39.620;2022-10-31T04:13:24;2.47;;;0.70;;
75280;SDS011;63874;47.230;39.620;2022-10-31T04:16:07;3.20;;;1.00;;
75280;SDS011;63874;47.230;39.620;2022-10-31T04:18:34;1.90;;;0.52;;
75280;SDS011;63874;47.230;39.620;2022-10-31T04:21:02;2.65;;;0.77;;
75280;SDS011;63874;47.230;39.620;2022-10-31T04:23:31;1.45;;;0.50;;
75280;SDS011;63874;47.230;39.620;2022-10-31T04:26:03;2.72;;;0.63;;
75280;SDS011;63874;47.230;39.620;2022-10-31T04:28:29;3.35;;;0.80;;
75280;SDS011;63874;47.230;39.620;2022-10-31T04:30:56;2.95;;;0.65;;
75280;SDS011;63874;47.230;39.620;2022-10-31T04:33:21;1.73;;;0.30;;
75280;SDS011;63874;47.230;39.620;2022-10-31T04:35:47;2.28;;;0.70;;
75280;SDS011;63874;47.230;39.620;2022-10-31T04:38:14;2.33;;;0.93;;
75280;SDS011;63874;47.230;39.620;2022-10-31T04:40:41;2.08;;;0.73;;
75280;SDS011;63874;47.230;39.620;2022-10-31T04:43:33;1.92;;;0.40;;
75280;SDS011;63874;47.230;39.620;2022-10-31T04:46:00;2.05;;;0.55;;
75280;SDS011;63874;47.230;39.620;2022-10-31T04:48:27;2.58;;;0.50;;
75280;SDS011;63874;47.230;39.620;2022-10-31T04:51:01;2.20;;;0.95;;
75280;SDS011;63874;47.230;39.620;2022-10-31T04:53:28;1.50;;;0.70;;
75280;SDS011;63874;47.230;39.620;2022-10-31T04:56:12;1.75;;;0.40;;
75280;SDS011;63874;47.230;39.620;2022-10-31T04:58:42;1.10;;;0.30;;
75280;SDS011;63874;47.230;39.620;2022-10-31T05:01:09;1.17;;;0.32;;
75280;SDS011;63874;47.230;39.620;2022-10-31T05:03:35;1.23;;;0.32;;
75280;SDS011;63874;47.230;39.620;2022-10-31T05:06:01;1.10;;;0.20;;
75280;SDS011;63874;47.230;39.620;2022-10-31T05:08:27;2.03;;;0.45;;
75280;SDS011;63874;47.230;39.620;2022-10-31T05:10:54;1.60;;;0.52;;
75280;SDS011;63874;47.230;39.620;2022-10-31T05:13:20;1.45;;;0.28;;
75280;SDS011;63874;47.230;39.620;2022-10-31T05:16:05;1.90;;;0.68;;
75280;SDS011;63874;47.230;39.620;2022-10-31T05:18:53;1.00;;;0.52;;
75280;SDS011;63874;47.230;39.620;2022-10-31T05:21:19;1.67;;;0.28;;
75280;SDS011;63874;47.230;39.620;2022-10-31T05:23:52;2.17;;;0.32;;
75280;SDS011;63874;47.230;39.620;2022-10-31T05:26:19;3.38;;;0.43;;
75280;SDS011;63874;47.230;39.620;2022-10-31T05:28:46;1.50;;;0.45;;
75280;SDS011;63874;47.230;39.620;2022-10-31T05:31:12;2.45;;;0.73;;
75280;SDS011;63874;47.230;39.620;2022-10-31T05:33:39;1.65;;;0.32;;
75280;SDS011;63874;47.230;39.620;2022-10-31T05:36:24;1.77;;;0.20;;
75280;SDS011;63874;47.230;39.620;2022-10-31T05:38:58;2.00;;;1.02;;
75280;SDS011;63874;47.230;39.620;2022-10-31T05:41:29;2.72;;;1.60;;
75280;SDS011;63874;47.230;39.620;2022-10-31T05:44:09;1.33;;;0.20;;
75280;SDS011;63874;47.230;39.620;2022-10-31T05:47:01;3.33;;;0.30;;
75280;SDS011;63874;47.230;39.620;2022-10-31T05:49:46;3.17;;;0.52;;
75280;SDS011;63874;47.230;39.620;2022-10-31T05:52:30;1.55;;;0.60;;
75280;SDS011;63874;47.230;39.620;2022-10-31T05:55:04;1.63;;;0.45;;
75280;SDS011;63874;47.230;39.620;2022-10-31T05:57:31;1.70;;;0.20;;
75280;SDS011;63874;47.230;39.620;2022-10-31T05:59:58;1.17;;;0.52;;
75280;SDS011;63874;47.230;39.620;2022-10-31T06:02:24;1.33;;;0.43;;
75280;SDS011;63874;47.230;39.620;2022-10-31T06:05:13;1.00;;;0.30;;
75280;SDS011;63874;47.230;39.620;2022-10-31T06:07:40;2.10;;;0.30;;
75280;SDS011;63874;47.230;39.620;2022-10-31T06:10:07;1.20;;;0.38;;
75280;SDS011;63874;47.230;39.620;2022-10-31T06:12:34;1.30;;;0.20;;
75280;SDS011;63874;47.230;39.620;2022-10-31T06:15:19;1.13;;;0.30;;
75280;SDS011;63874;47.230;39.620;2022-10-31T06:17:46;1.73;;;0.63;;
75280;SDS011;63874;47.230;39.620;2022-10-31T06:20:22;1.38;;;0.32;;
75280;SDS011;63874;47.230;39.620;2022-10-31T06:23:01;1.48;;;0.45;;
75280;SDS011;63874;47.230;39.620;2022-10-31T06:25:30;2.15;;;0.65;;
75280;SDS011;63874;47.230;39.620;2022-10-31T06:27:56;1.77;;;0.20;;
75280;SDS011;63874;47.230;39.620;2022-10-31T06:30:28;1.45;;;0.20;;
75280;SDS011;63874;47.230;39.620;2022-10-31T06:32:54;1.45;;;0.70;;
75280;SDS011;63874;47.230;39.620;2022-10-31T06:35:26;1.60;;;0.40;;
75280;SDS011;63874;47.230;39.620;2022-10-31T06:37:53;1.25;;;0.60;;
75280;SDS011;63874;47.230;39.620;2022-10-31T06:40:28;3.92;;;0.60;;
75280;SDS011;63874;47.230;39.620;2022-10-31T06:43:09;2.45;;;0.30;;
75280;SDS011;63874;47.230;39.620;2022-10-31T06:45:38;1.30;;;0.30;;
75280;SDS011;63874;47.230;39.620;2022-10-31T06:48:21;2.33;;;0.38;;
75280;SDS011;63874;47.230;39.620;2022-10-31T06:53:31;2.22;;;0.68;;
75280;SDS011;63874;47.230;39.620;2022-10-31T06:55:57;2.25;;;0.40;;
75280;SDS011;63874;47.230;39.620;2022-10-31T06:58:24;2.33;;;0.90;;
75280;SDS011;63874;47.230;39.620;2022-10-31T07:00:53;1.45;;;0.22;;
75280;SDS011;63874;47.230;39.620;2022-10-31T07:03:20;1.40;;;0.38;;
75280;SDS011;63874;47.230;39.620;2022-10-31T07:05:47;1.77;;;0.38;;
75280;SDS011;63874;47.230;39.620;2022-10-31T07:08:14;1.20;;;0.22;;
75280;SDS011;63874;47.230;39.620;2022-10-31T07:10:41;1.80;;;0.38;;
75280;SDS011;63874;47.230;39.620;2022-10-31T07:13:10;1.85;;;0.45;;
75280;SDS011;63874;47.230;39.620;2022-10-31T07:15:38;1.88;;;0.30;;
75280;SDS011;63874;47.230;39.620;2022-10-31T07:18:06;1.20;;;0.30;;
75280;SDS011;63874;47.230;39.620;2022-10-31T07:20:33;1.67;;;0.40;;
75280;SDS011;63874;47.230;39.620;2022-10-31T07:23:01;3.15;;;0.35;;
75280;SDS011;63874;47.230;39.620;2022-10-31T07:25:29;2.47;;;0.30;;
75280;SDS011;63874;47.230;39.620;2022-10-31T07:28:17;1.77;;;0.30;;
75280;SDS011;63874;47.230;39.620;2022-10-31T07:30:52;2.25;;;0.40;;
75280;SDS011;63874;47.230;39.620;2022-10-31T07:33:20;1.98;;;0.68;;
75280;SDS011;63874;47.230;39.620;2022-10-31T07:36:05;1.63;;;0.30;;
75280;SDS011;63874;47.230;39.620;2022-10-31T07:38:32;2.20;;;0.50;;
75280;SDS011;63874;47.230;39.620;2022-10-31T07:41:02;2.30;;;0.50;;
75280;SDS011;63874;47.230;39.620;2022-10-31T07:43:30;2.53;;;0.93;;
75280;SDS011;63874;47.230;39.620;2022-10-31T07:46:16;2.50;;;0.47;;
75280;SDS011;63874;47.230;39.620;2022-10-31T07:49:01;2.40;;;1.15;;
75280;SDS011;63874;47.230;39.620;2022-10-31T07:51:46;2.30;;;0.43;;
75280;SDS011;63874;47.230;39.620;2022-10-31T07:54:41;3.03;;;0.80;;
75280;SDS011;63874;47.230;39.620;2022-10-31T07:57:08;2.03;;;0.50;;
75280;SDS011;63874;47.230;39.620;2022-10-31T07:59:34;3.13;;;0.75;;
75280;SDS011;63874;47.230;39.620;2022-10-31T08:02:00;2.08;;;0.50;;
75280;SDS011;63874;47.230;39.620;2022-10-31T08:04:29;3.47;;;0.82;;
75280;SDS011;63874;47.230;39.620;2022-10-31T08:07:13;2.80;;;0.52;;
75280;SDS011;63874;47.230;39.620;2022-10-31T08:09:44;2.97;;;0.90;;
75280;SDS011;63874;47.230;39.620;2022-10-31T08:12:18;2.75;;;0.75;;
75280;SDS011;63874;47.230;39.620;2022-10-31T08:14:45;5.72;;;1.15;;
75280;SDS011;63874;47.230;39.620;2022-10-31T08:17:12;3.00;;;0.70;;
75280;SDS011;63874;47.230;39.620;2022-10-31T08:19:50;3.33;;;0.65;;
75280;SDS011;63874;47.230;39.620;2022-10-31T08:22:18;3.60;;;0.68;;
75280;SDS011;63874;47.230;39.620;2022-10-31T08:24:44;5.00;;;0.93;;
75280;SDS011;63874;47.230;39.620;2022-10-31T08:27:10;2.75;;;1.08;;
75280;SDS011;63874;47.230;39.620;2022-10-31T08:29:38;4.20;;;1.20;;
75280;SDS011;63874;47.230;39.620;2022-10-31T08:32:04;2.38;;;0.63;;
75280;SDS011;63874;47.230;39.620;2022-10-31T08:34:48;2.83;;;1.08;;
75280;SDS011;63874;47.230;39.620;2022-10-31T08:37:33;3.25;;;0.55;;
75280;SDS011;63874;47.230;39.620;2022-10-31T08:39:59;3.78;;;0.63;;
75280;SDS011;63874;47.230;39.620;2022-10-31T08:42:25;2.38;;;0.85;;
75280;SDS011;63874;47.230;39.620;2022-10-31T08:44:51;4.32;;;1.15;;
75280;SDS011;63874;47.230;39.620;2022-10-31T08:47:20;3.08;;;0.85;;
75280;SDS011;63874;47.230;39.620;2022-10-31T08:49:46;2.25;;;0.77;;
75280;SDS011;63874;47.230;39.620;2022-10-31T08:52:13;3.35;;;0.60;;
75280;SDS011;63874;47.230;39.620;2022-10-31T08:54:42;4.28;;;1.42;;
75280;SDS011;63874;47.230;39.620;2022-10-31T08:57:26;3.33;;;0.50;;
75280;SDS011;63874;47.230;39.620;2022-10-31T08:59:53;3.25;;;0.95;;
75280;SDS011;63874;47.230;39.620;2022-10-31T09:02:32;2.30;;;0.55;;
75280;SDS011;63874;47.230;39.620;2022-10-31T09:05:00;3.53;;;0.65;;
75280;SDS011;63874;47.230;39.620;2022-10-31T09:07:27;2.15;;;0.47;;
75280;SDS011;63874;47.230;39.620;2022-10-31T09:09:53;2.03;;;0.82;;
75280;SDS011;63874;47.230;39.620;2022-10-31T09:12:21;1.40;;;0.40;;
75280;SDS011;63874;47.230;39.620;2022-10-31T09:14:55;3.00;;;0.40;;
75280;SDS011;63874;47.230;39.620;2022-10-31T09:17:35;2.00;;;0.47;;
75280;SDS011;63874;47.230;39.620;2022-10-31T09:22:46;1.52;;;0.40;;
75280;SDS011;63874;47.230;39.620;2022-10-31T09:25:12;0.93;;;0.45;;
75280;SDS011;63874;47.230;39.620;2022-10-31T09:27:42;1.17;;;0.40;;
75280;SDS011;63874;47.230;39.620;2022-10-31T09:30:08;0.70;;;0.10;;
75280;SDS011;63874;47.230;39.620;2022-10-31T09:32:35;0.60;;;0.15;;
75280;SDS011;63874;47.230;39.620;2022-10-31T09:35:02;1.50;;;0.32;;
75280;SDS011;63874;47.230;39.620;2022-10-31T09:37:28;1.48;;;0.20;;
75280;SDS011;63874;47.230;39.620;2022-10-31T09:39:54;1.17;;;0.43;;
75280;SDS011;63874;47.230;39.620;2022-10-31T09:50:44;0.63;;;0.10;;
75280;SDS011;63874;47.230;39.620;2022-10-31T09:53:35;0.68;;;0.13;;
75280;SDS011;63874;47.230;39.620;2022-10-31T09:56:13;0.60;;;0.10;;
75280;SDS011;63874;47.230;39.620;2022-10-31T09:58:46;0.63;;;0.10;;
75280;SDS011;63874;47.230;39.620;2022-10-31T10:01:17;0.25;;;0.08;;
75280;SDS011;63874;47.230;39.620;2022-10-31T10:03:51;0.65;;;0.10;;
75280;SDS011;63874;47.230;39.620;2022-10-31T10:07:02;0.68;;;0.10;;
75280;SDS011;63874;47.230;39.620;2022-10-31T10:09:43;1.05;;;0.15;;
75280;SDS011;63874;47.230;39.620;2022-10-31T10:21:02;0.63;;;0.30;;
75280;SDS011;63874;47.230;39.620;2022-10-31T10:26:22;0.82;;;0.65;;
75280;SDS011;63874;47.230;39.620;2022-10-31T10:28:57;0.40;;;0.13;;
75280;SDS011;63874;47.230;39.620;2022-10-31T10:31:33;0.73;;;0.03;;
75280;SDS011;63874;47.230;39.620;2022-10-31T10:36:48;0.60;;;0.35;;
75280;SDS011;63874;47.230;39.620;2022-10-31T10:39:45;0.52;;;0.17;;
75280;SDS011;63874;47.230;39.620;2022-10-31T10:42:15;1.17;;;0.70;;
75280;SDS011;63874;47.230;39.620;2022-10-31T10:45:13;0.50;;;0.10;;
75280;SDS011;63874;47.230;39.620;2022-10-31T10:48:07;0.28;;;0.10;;
75280;SDS011;63874;47.230;39.620;2022-10-31T10:50:54;0.70;;;0.10;;
75280;SDS011;63874;47.230;39.620;2022-10-31T10:56:36;0.50;;;0.10;;
75280;SDS011;63874;47.230;39.620;2022-10-31T10:59:11;0.28;;;0.17;;
75280;SDS011;63874;47.230;39.620;2022-10-31T11:01:39;0.57;;;0.10;;
75280;SDS011;63874;47.230;39.620;2022-10-31T11:04:25;0.35;;;0.22;;
75280;SDS011;63874;47.230;39.620;2022-10-31T11:07:02;0.40;;;0.20;;
75280;SDS011;63874;47.230;39.620;2022-10-31T11:09:31;0.40;;;0.22;;
75280;SDS011;63874;47.230;39.620;2022-10-31T11:11:58;0.30;;;0.17;;
75280;SDS011;63874;47.230;39.620;2022-10-31T11:14:25;0.45;;;0.10;;
75280;SDS011;63874;47.230;39.620;2022-10-31T11:17:06;0.50;;;0.10;;
75280;SDS011;63874;47.230;39.620;2022-10-31T11:19:36;1.75;;;0.10;;
75280;SDS011;63874;47.230;39.620;2022-10-31T11:22:06;0.40;;;0.10;;
75280;SDS011;63874;47.230;39.620;2022-10-31T11:24:37;0.55;;;0.15;;
75280;SDS011;63874;47.230;39.620;2022-10-31T11:27:16;0.60;;;0.13;;
75280;SDS011;63874;47.230;39.620;2022-10-31T11:29:45;1.25;;;0.20;;
75280;SDS011;63874;47.230;39.620;2022-10-31T11:32:16;0.52;;;0.15;;
75280;SDS011;63874;47.230;39.620;2022-10-31T11:34:45;1.55;;;0.28;;
75280;SDS011;63874;47.230;39.620;2022-10-31T11:39:50;0.50;;;0.15;;
75280;SDS011;63874;47.230;39.620;2022-10-31T11:42:22;0.90;;;0.32;;
75280;SDS011;63874;47.230;39.620;2022-10-31T11:44:51;0.45;;;0.15;;
75280;SDS011;63874;47.230;39.620;2022-10-31T11:47:20;1.05;;;0.20;;
75280;SDS011;63874;47.230;39.620;2022-10-31T11:49:53;0.47;;;0.20;;
75280;SDS011;63874;47.230;39.620;2022-10-31T11:52:25;0.45;;;0.15;;
75280;SDS011;63874;47.230;39.620;2022-10-31T11:54:54;0.55;;;0.10;;
75280;SDS011;63874;47.230;39.620;2022-10-31T12:00:03;0.45;;;0.10;;
75280;SDS011;63874;47.230;39.620;2022-10-31T12:02:45;0.30;;;0.10;;
75280;SDS011;63874;47.230;39.620;2022-10-31T12:05:17;0.47;;;0.13;;
75280;SDS011;63874;47.230;39.620;2022-10-31T12:07:54;0.68;;;0.20;;
75280;SDS011;63874;47.230;39.620;2022-10-31T12:10:22;0.20;;;0.10;;
75280;SDS011;63874;47.230;39.620;2022-10-31T12:12:57;0.43;;;0.38;;
75280;SDS011;63874;47.230;39.620;2022-10-31T12:15:30;0.38;;;0.10;;
75280;SDS011;63874;47.230;39.620;2022-10-31T12:31:34;0.30;;;0.10;;
75280;SDS011;63874;47.230;39.620;2022-10-31T12:34:40;0.80;;;0.10;;
75280;SDS011;63874;47.230;39.620;2022-10-31T12:46:00;0.40;;;0.20;;
75280;SDS011;63874;47.230;39.620;2022-10-31T13:07:15;0.32;;;0.20;;
75280;SDS011;63874;47.230;39.620;2022-10-31T13:12:36;0.50;;;0.20;;
75280;SDS011;63874;47.230;39.620;2022-10-31T13:15:05;0.32;;;0.10;;
75280;SDS011;63874;47.230;39.620;2022-10-31T13:17:42;0.85;;;0.40;;
75280;SDS011;63874;47.230;39.620;2022-10-31T13:23:42;0.30;;;0.20;;
75280;SDS011;63874;47.230;39.620;2022-10-31T13:25:59;0.20;;;0.10;;
75280;SDS011;63874;47.230;39.620;2022-10-31T13:28:37;0.28;;;0.10;;
75280;SDS011;63874;47.230;39.620;2022-10-31T13:31:14;0.10;;;0.00;;
75280;SDS011;63874;47.230;39.620;2022-10-31T13:33:51;0.13;;;0.08;;
75280;SDS011;63874;47.230;39.620;2022-10-31T13:36:24;0.93;;;0.20;;
75280;SDS011;63874;47.230;39.620;2022-10-31T13:39:19;0.20;;;0.10;;
75280;SDS011;63874;47.230;39.620;2022-10-31T13:44:20;0.63;;;0.10;;
75280;SDS011;63874;47.230;39.620;2022-10-31T13:46:51;0.30;;;0.10;;
75280;SDS011;63874;47.230;39.620;2022-10-31T13:49:25;0.63;;;0.10;;
75280;SDS011;63874;47.230;39.620;2022-10-31T13:59:52;0.13;;;0.00;;
75280;SDS011;63874;47.230;39.620;2022-10-31T14:02:28;0.20;;;0.10;;
75280;SDS011;63874;47.230;39.620;2022-10-31T14:05:15;0.98;;;0.57;;
75280;SDS011;63874;47.230;39.620;2022-10-31T14:08:02;0.38;;;0.10;;
75280;SDS011;63874;47.230;39.620;2022-10-31T14:10:35;1.13;;;1.02;;
75280;SDS011;63874;47.230;39.620;2022-10-31T14:13:17;0.73;;;0.22;;
75280;SDS011;63874;47.230;39.620;2022-10-31T14:16:17;0.30;;;0.20;;
75280;SDS011;63874;47.230;39.620;2022-10-31T14:18:48;0.40;;;0.38;;
75280;SDS011;63874;47.230;39.620;2022-10-31T14:23:49;0.50;;;0.20;;
75280;SDS011;63874;47.230;39.620;2022-10-31T14:28:52;0.57;;;0.30;;
75280;SDS011;63874;47.230;39.620;2022-10-31T14:34:52;0.50;;;0.10;;
75280;SDS011;63874;47.230;39.620;2022-10-31T14:53:51;0.30;;;0.20;;
75280;SDS011;63874;47.230;39.620;2022-10-31T14:56:29;0.30;;;0.13;;
75280;SDS011;63874;47.230;39.620;2022-10-31T14:58:59;0.52;;;0.30;;
75280;SDS011;63874;47.230;39.620;2022-10-31T15:01:29;0.93;;;0.10;;
75280;SDS011;63874;47.230;39.620;2022-10-31T15:04:07;1.60;;;1.35;;
75280;SDS011;63874;47.230;39.620;2022-10-31T15:06:40;0.68;;;0.35;;
75280;SDS011;63874;47.230;39.620;2022-10-31T15:09:25;0.43;;;0.20;;
75280;SDS011;63874;47.230;39.620;2022-10-31T15:11:58;0.43;;;0.10;;
75280;SDS011;63874;47.230;39.620;2022-10-31T15:14:29;0.30;;;0.10;;
75280;SDS011;63874;47.230;39.620;2022-10-31T15:16:56;0.28;;;0.10;;
75280;SDS011;63874;47.230;39.620;2022-10-31T15:19:24;0.52;;;0.22;;
75280;SDS011;63874;47.230;39.620;2022-10-31T15:21:53;0.60;;;0.10;;
75280;SDS011;63874;47.230;39.620;2022-10-31T15:24:22;1.10;;;0.70;;
75280;SDS011;63874;47.230;39.620;2022-10-31T15:26:53;0.73;;;0.20;;
75280;SDS011;63874;47.230;39.620;2022-10-31T15:29:21;0.60;;;0.30;;
75280;SDS011;63874;47.230;39.620;2022-10-31T15:31:53;0.82;;;0.20;;
75280;SDS011;63874;47.230;39.620;2022-10-31T15:37:02;0.60;;;0.20;;
75280;SDS011;63874;47.230;39.620;2022-10-31T15:39:28;0.52;;;0.20;;
75280;SDS011;63874;47.230;39.620;2022-10-31T15:41:57;2.58;;;0.38;;
75280;SDS011;63874;47.230;39.620;2022-10-31T15:44:25;0.30;;;0.20;;
75280;SDS011;63874;47.230;39.620;2022-10-31T15:47:01;0.47;;;0.20;;
75280;SDS011;63874;47.230;39.620;2022-10-31T15:55:04;0.63;;;0.40;;
75280;SDS011;63874;47.230;39.620;2022-10-31T15:57:51;0.17;;;0.10;;
75280;SDS011;63874;47.230;39.620;2022-10-31T16:00:41;0.50;;;0.20;;
75280;SDS011;63874;47.230;39.620;2022-10-31T16:03:08;0.82;;;0.40;;
75280;SDS011;63874;47.230;39.620;2022-10-31T16:05:52;0.40;;;0.28;;
75280;SDS011;63874;47.230;39.620;2022-10-31T16:08:45;1.15;;;0.20;;
75280;SDS011;63874;47.230;39.620;2022-10-31T16:13:55;0.60;;;0.20;;
75280;SDS011;63874;47.230;39.620;2022-10-31T16:16:28;0.85;;;0.77;;
75280;SDS011;63874;47.230;39.620;2022-10-31T16:18:56;0.32;;;0.22;;
75280;SDS011;63874;47.230;39.620;2022-10-31T16:21:27;0.40;;;0.20;;
75280;SDS011;63874;47.230;39.620;2022-10-31T16:24:00;1.58;;;0.40;;
75280;SDS011;63874;47.230;39.620;2022-10-31T16:26:47;0.40;;;0.28;;
75280;SDS011;63874;47.230;39.620;2022-10-31T16:29:51;0.35;;;0.20;;
75280;SDS011;63874;47.230;39.620;2022-10-31T16:32:24;0.60;;;0.50;;
75280;SDS011;63874;47.230;39.620;2022-10-31T16:35:38;0.47;;;0.30;;
75280;SDS011;63874;47.230;39.620;2022-10-31T16:37:51;0.47;;;0.20;;
75280;SDS011;63874;47.230;39.620;2022-10-31T16:40:17;0.70;;;0.30;;
75280;SDS011;63874;47.230;39.620;2022-10-31T16:42:44;0.30;;;0.20;;
75280;SDS011;63874;47.230;39.620;2022-10-31T16:45:15;0.43;;;0.30;;
75280;SDS011;63874;47.230;39.620;2022-10-31T16:47:48;0.40;;;0.10;;
75280;SDS011;63874;47.230;39.620;2022-10-31T16:50:16;1.15;;;0.30;;
75280;SDS011;63874;47.230;39.620;2022-10-31T16:52:46;0.52;;;0.20;;
75280;SDS011;63874;47.230;39.620;2022-10-31T16:55:13;1.58;;;0.50;;
75280;SDS011;63874;47.230;39.620;2022-10-31T16:57:43;1.00;;;0.47;;
75280;SDS011;63874;47.230;39.620;2022-10-31T17:00:13;0.45;;;0.20;;
75280;SDS011;63874;47.230;39.620;2022-10-31T17:02:40;1.05;;;0.35;;
75280;SDS011;63874;47.230;39.620;2022-10-31T17:05:13;1.85;;;0.45;;
75280;SDS011;63874;47.230;39.620;2022-10-31T17:07:41;1.90;;;0.30;;
75280;SDS011;63874;47.230;39.620;2022-10-31T17:10:08;3.58;;;0.38;;
75280;SDS011;63874;47.230;39.620;2022-10-31T17:12:37;1.38;;;0.30;;
75280;SDS011;63874;47.230;39.620;2022-10-31T17:15:06;0.35;;;0.20;;
75280;SDS011;63874;47.230;39.620;2022-10-31T17:17:51;1.50;;;0.47;;
75280;SDS011;63874;47.230;39.620;2022-10-31T17:20:22;1.60;;;0.30;;
75280;SDS011;63874;47.230;39.620;2022-10-31T17:22:53;1.10;;;0.50;;
75280;SDS011;63874;47.230;39.620;2022-10-31T17:25:21;2.60;;;0.50;;
75280;SDS011;63874;47.230;39.620;2022-10-31T17:27:49;0.80;;;0.22;;
75280;SDS011;63874;47.230;39.620;2022-10-31T17:30:16;0.85;;;0.25;;
75280;SDS011;63874;47.230;39.620;2022-10-31T17:32:43;1.83;;;0.35;;
75280;SDS011;63874;47.230;39.620;2022-10-31T17:35:10;1.02;;;0.30;;
75280;SDS011;63874;47.230;39.620;2022-10-31T17:37:37;0.63;;;0.25;;
75280;SDS011;63874;47.230;39.620;2022-10-31T17:40:04;1.85;;;0.40;;
75280;SDS011;63874;47.230;39.620;2022-10-31T17:42:31;1.63;;;0.63;;
75280;SDS011;63874;47.230;39.620;2022-10-31T17:44:57;1.05;;;0.40;;
75280;SDS011;63874;47.230;39.620;2022-10-31T17:47:23;0.65;;;0.30;;
75280;SDS011;63874;47.230;39.620;2022-10-31T17:49:49;2.13;;;0.65;;
75280;SDS011;63874;47.230;39.620;2022-10-31T17:52:15;2.63;;;0.50;;
75280;SDS011;63874;47.230;39.620;2022-10-31T17:54:41;2.22;;;0.55;;
75280;SDS011;63874;47.230;39.620;2022-10-31T17:57:07;1.90;;;0.55;;
75280;SDS011;63874;47.230;39.620;2022-10-31T17:59:33;0.65;;;0.20;;
75280;SDS011;63874;47.230;39.620;2022-10-31T18:01:59;1.00;;;0.30;;